Alamo, Tennessee
Current Conditions -  °F | °C
As of 7:53 PM on Wednesday 26 Nov 2014 (Local Time) from KMKL Reporting Station
Overcast Overcast  
Wind Chill: 37°   Ceiling: 8000
Heat Index: 42°   Visibility: 10mi
Dew Point: 33°   Wind: 8mph
Humidity: 70%   Direction: 270°W
Pressure: 30.12"   Gusts: NA
Location:  35.78°N, 89.12°W
Report Text: KMKL 270153Z AUTO 27007KT 10SM SCT055 OVC080 06/01 A3012 RMK AO2 SLP202 T00560006
Loading
Personal Weather Stations






























Interactive Weather Map New forecast layout! Learn more

10-Day Weather Forecast

Advertisements
Track Severe Weather on mobile